sensor_id;sensor_type;location;lat;lon;timestamp;P1;durP1;ratioP1;P2;durP2;ratioP2
10900;SDS011;5503;53.208;10.392;2022-08-19T00:01:48;21.13;;;9.70;;
10900;SDS011;5503;53.208;10.392;2022-08-19T00:04:17;22.77;;;9.13;;
10900;SDS011;5503;53.208;10.392;2022-08-19T00:06:47;19.10;;;8.65;;
10900;SDS011;5503;53.208;10.392;2022-08-19T00:09:15;21.13;;;9.85;;
10900;SDS011;5503;53.208;10.392;2022-08-19T00:11:44;23.23;;;10.07;;
10900;SDS011;5503;53.208;10.392;2022-08-19T00:14:12;22.48;;;9.85;;
10900;SDS011;5503;53.208;10.392;2022-08-19T00:16:41;23.65;;;10.25;;
10900;SDS011;5503;53.208;10.392;2022-08-19T00:19:09;24.27;;;10.02;;
10900;SDS011;5503;53.208;10.392;2022-08-19T00:21:36;23.42;;;10.18;;
10900;SDS011;5503;53.208;10.392;2022-08-19T00:24:06;22.37;;;9.53;;
10900;SDS011;5503;53.208;10.392;2022-08-19T00:26:33;20.63;;;8.75;;
10900;SDS011;5503;53.208;10.392;2022-08-19T00:29:01;21.45;;;9.55;;
10900;SDS011;5503;53.208;10.392;2022-08-19T00:31:28;21.83;;;9.48;;
10900;SDS011;5503;53.208;10.392;2022-08-19T00:33:56;23.25;;;9.02;;
10900;SDS011;5503;53.208;10.392;2022-08-19T00:36:23;20.40;;;9.10;;
10900;SDS011;5503;53.208;10.392;2022-08-19T00:38:50;20.52;;;9.05;;
10900;SDS011;5503;53.208;10.392;2022-08-19T00:41:20;18.77;;;8.30;;
10900;SDS011;5503;53.208;10.392;2022-08-19T00:43:56;19.92;;;8.52;;
10900;SDS011;5503;53.208;10.392;2022-08-19T00:46:27;22.75;;;9.95;;
10900;SDS011;5503;53.208;10.392;2022-08-19T00:48:54;18.40;;;8.07;;
10900;SDS011;5503;53.208;10.392;2022-08-19T00:51:22;17.38;;;8.48;;
10900;SDS011;5503;53.208;10.392;2022-08-19T00:53:51;18.55;;;8.35;;
10900;SDS011;5503;53.208;10.392;2022-08-19T00:56:20;21.60;;;7.60;;
10900;SDS011;5503;53.208;10.392;2022-08-19T00:58:47;21.27;;;9.07;;
10900;SDS011;5503;53.208;10.392;2022-08-19T01:01:14;25.40;;;9.20;;
10900;SDS011;5503;53.208;10.392;2022-08-19T01:03:41;20.90;;;8.15;;
10900;SDS011;5503;53.208;10.392;2022-08-19T01:06:08;19.70;;;8.70;;
10900;SDS011;5503;53.208;10.392;2022-08-19T01:08:35;29.23;;;10.90;;
10900;SDS011;5503;53.208;10.392;2022-08-19T01:11:04;21.20;;;8.73;;
10900;SDS011;5503;53.208;10.392;2022-08-19T01:13:32;20.60;;;8.60;;
10900;SDS011;5503;53.208;10.392;2022-08-19T01:16:03;24.13;;;9.18;;
10900;SDS011;5503;53.208;10.392;2022-08-19T01:18:35;20.55;;;8.52;;
10900;SDS011;5503;53.208;10.392;2022-08-19T01:21:08;17.67;;;8.02;;
10900;SDS011;5503;53.208;10.392;2022-08-19T01:23:41;19.10;;;8.70;;
10900;SDS011;5503;53.208;10.392;2022-08-19T01:26:09;19.37;;;8.30;;
10900;SDS011;5503;53.208;10.392;2022-08-19T01:28:39;18.15;;;8.15;;
10900;SDS011;5503;53.208;10.392;2022-08-19T01:31:06;16.75;;;8.20;;
10900;SDS011;5503;53.208;10.392;2022-08-19T01:33:36;17.52;;;8.23;;
10900;SDS011;5503;53.208;10.392;2022-08-19T01:36:05;23.25;;;8.65;;
10900;SDS011;5503;53.208;10.392;2022-08-19T01:38:34;21.47;;;8.80;;
10900;SDS011;5503;53.208;10.392;2022-08-19T01:41:04;19.33;;;7.78;;
10900;SDS011;5503;53.208;10.392;2022-08-19T01:43:31;16.60;;;7.40;;
10900;SDS011;5503;53.208;10.392;2022-08-19T01:45:59;17.05;;;7.88;;
10900;SDS011;5503;53.208;10.392;2022-08-19T01:48:26;16.83;;;7.60;;
10900;SDS011;5503;53.208;10.392;2022-08-19T01:50:54;15.47;;;7.73;;
10900;SDS011;5503;53.208;10.392;2022-08-19T01:53:21;12.68;;;6.80;;
10900;SDS011;5503;53.208;10.392;2022-08-19T01:55:48;20.45;;;7.50;;
10900;SDS011;5503;53.208;10.392;2022-08-19T01:58:18;15.00;;;7.28;;
10900;SDS011;5503;53.208;10.392;2022-08-19T02:00:47;14.70;;;7.53;;
10900;SDS011;5503;53.208;10.392;2022-08-19T02:03:14;15.67;;;6.97;;
10900;SDS011;5503;53.208;10.392;2022-08-19T02:05:42;15.95;;;6.65;;
10900;SDS011;5503;53.208;10.392;2022-08-19T02:08:10;17.75;;;7.43;;
10900;SDS011;5503;53.208;10.392;2022-08-19T02:13:14;17.27;;;8.00;;
10900;SDS011;5503;53.208;10.392;2022-08-19T02:15:42;16.60;;;7.57;;
10900;SDS011;5503;53.208;10.392;2022-08-19T02:18:09;16.23;;;7.10;;
10900;SDS011;5503;53.208;10.392;2022-08-19T02:20:37;17.50;;;7.70;;
10900;SDS011;5503;53.208;10.392;2022-08-19T02:23:05;18.25;;;8.20;;
10900;SDS011;5503;53.208;10.392;2022-08-19T02:25:33;18.85;;;8.45;;
10900;SDS011;5503;53.208;10.392;2022-08-19T02:28:00;18.13;;;8.77;;
10900;SDS011;5503;53.208;10.392;2022-08-19T02:30:27;17.73;;;8.48;;
10900;SDS011;5503;53.208;10.392;2022-08-19T02:32:56;17.73;;;7.50;;
10900;SDS011;5503;53.208;10.392;2022-08-19T02:35:23;14.95;;;7.55;;
10900;SDS011;5503;53.208;10.392;2022-08-19T02:37:50;17.63;;;7.82;;
10900;SDS011;5503;53.208;10.392;2022-08-19T02:40:35;13.60;;;6.73;;
10900;SDS011;5503;53.208;10.392;2022-08-19T02:43:02;13.82;;;6.97;;
10900;SDS011;5503;53.208;10.392;2022-08-19T02:45:31;13.38;;;6.78;;
10900;SDS011;5503;53.208;10.392;2022-08-19T02:48:00;14.82;;;6.90;;
10900;SDS011;5503;53.208;10.392;2022-08-19T02:50:26;14.55;;;6.88;;
10900;SDS011;5503;53.208;10.392;2022-08-19T02:52:54;15.50;;;6.70;;
10900;SDS011;5503;53.208;10.392;2022-08-19T02:55:21;16.95;;;7.47;;
10900;SDS011;5503;53.208;10.392;2022-08-19T02:57:48;14.07;;;7.07;;
10900;SDS011;5503;53.208;10.392;2022-08-19T03:00:15;18.65;;;8.00;;
10900;SDS011;5503;53.208;10.392;2022-08-19T03:02:43;14.27;;;6.90;;
10900;SDS011;5503;53.208;10.392;2022-08-19T03:05:13;14.27;;;6.80;;
10900;SDS011;5503;53.208;10.392;2022-08-19T03:07:39;15.70;;;7.15;;
10900;SDS011;5503;53.208;10.392;2022-08-19T03:10:07;16.42;;;7.47;;
10900;SDS011;5503;53.208;10.392;2022-08-19T03:12:35;16.98;;;7.80;;
10900;SDS011;5503;53.208;10.392;2022-08-19T03:15:03;15.60;;;8.00;;
10900;SDS011;5503;53.208;10.392;2022-08-19T03:17:32;18.40;;;7.97;;
10900;SDS011;5503;53.208;10.392;2022-08-19T03:19:59;17.48;;;7.65;;
10900;SDS011;5503;53.208;10.392;2022-08-19T03:22:27;15.68;;;7.50;;
10900;SDS011;5503;53.208;10.392;2022-08-19T03:24:55;19.42;;;8.27;;
10900;SDS011;5503;53.208;10.392;2022-08-19T03:27:22;20.25;;;8.38;;
10900;SDS011;5503;53.208;10.392;2022-08-19T03:29:49;18.17;;;8.53;;
10900;SDS011;5503;53.208;10.392;2022-08-19T03:32:16;16.80;;;7.50;;
10900;SDS011;5503;53.208;10.392;2022-08-19T03:34:43;15.30;;;7.47;;
10900;SDS011;5503;53.208;10.392;2022-08-19T03:37:11;15.43;;;7.22;;
10900;SDS011;5503;53.208;10.392;2022-08-19T03:39:39;15.68;;;7.55;;
10900;SDS011;5503;53.208;10.392;2022-08-19T03:42:08;15.27;;;7.43;;
10900;SDS011;5503;53.208;10.392;2022-08-19T03:44:35;16.70;;;8.32;;
10900;SDS011;5503;53.208;10.392;2022-08-19T03:47:04;17.65;;;8.02;;
10900;SDS011;5503;53.208;10.392;2022-08-19T03:49:31;18.08;;;7.55;;
10900;SDS011;5503;53.208;10.392;2022-08-19T03:52:01;18.27;;;7.90;;
10900;SDS011;5503;53.208;10.392;2022-08-19T03:54:32;18.37;;;7.70;;
10900;SDS011;5503;53.208;10.392;2022-08-19T03:57:00;18.15;;;7.68;;
10900;SDS011;5503;53.208;10.392;2022-08-19T03:59:29;17.85;;;7.85;;
10900;SDS011;5503;53.208;10.392;2022-08-19T04:01:59;17.80;;;7.53;;
10900;SDS011;5503;53.208;10.392;2022-08-19T04:04:28;16.73;;;6.72;;
10900;SDS011;5503;53.208;10.392;2022-08-19T04:06:55;17.40;;;6.87;;
10900;SDS011;5503;53.208;10.392;2022-08-19T04:09:23;14.88;;;6.72;;
10900;SDS011;5503;53.208;10.392;2022-08-19T04:11:51;15.27;;;7.45;;
10900;SDS011;5503;53.208;10.392;2022-08-19T04:14:22;16.65;;;6.55;;
10900;SDS011;5503;53.208;10.392;2022-08-19T04:16:51;16.13;;;7.47;;
10900;SDS011;5503;53.208;10.392;2022-08-19T04:19:19;15.63;;;7.20;;
10900;SDS011;5503;53.208;10.392;2022-08-19T04:21:47;17.58;;;7.20;;
10900;SDS011;5503;53.208;10.392;2022-08-19T04:24:16;15.27;;;7.25;;
10900;SDS011;5503;53.208;10.392;2022-08-19T04:26:43;15.75;;;7.05;;
10900;SDS011;5503;53.208;10.392;2022-08-19T04:29:11;13.02;;;6.78;;
10900;SDS011;5503;53.208;10.392;2022-08-19T04:31:42;16.47;;;6.97;;
10900;SDS011;5503;53.208;10.392;2022-08-19T04:34:10;16.80;;;6.72;;
10900;SDS011;5503;53.208;10.392;2022-08-19T04:36:39;15.77;;;7.53;;
10900;SDS011;5503;53.208;10.392;2022-08-19T04:39:12;16.65;;;7.72;;
10900;SDS011;5503;53.208;10.392;2022-08-19T04:41:40;18.65;;;6.85;;
10900;SDS011;5503;53.208;10.392;2022-08-19T04:44:25;15.53;;;7.27;;
10900;SDS011;5503;53.208;10.392;2022-08-19T04:46:56;18.70;;;7.32;;
10900;SDS011;5503;53.208;10.392;2022-08-19T04:49:24;21.25;;;7.95;;
10900;SDS011;5503;53.208;10.392;2022-08-19T04:51:51;17.75;;;7.55;;
10900;SDS011;5503;53.208;10.392;2022-08-19T04:54:20;17.38;;;7.18;;
10900;SDS011;5503;53.208;10.392;2022-08-19T04:56:50;19.60;;;8.07;;
10900;SDS011;5503;53.208;10.392;2022-08-19T04:59:17;18.05;;;7.93;;
10900;SDS011;5503;53.208;10.392;2022-08-19T05:01:45;20.75;;;8.77;;
10900;SDS011;5503;53.208;10.392;2022-08-19T05:04:15;22.73;;;8.45;;
10900;SDS011;5503;53.208;10.392;2022-08-19T05:06:45;19.13;;;8.63;;
10900;SDS011;5503;53.208;10.392;2022-08-19T05:09:12;18.73;;;7.73;;
10900;SDS011;5503;53.208;10.392;2022-08-19T05:11:39;20.15;;;8.23;;
10900;SDS011;5503;53.208;10.392;2022-08-19T05:14:06;21.58;;;8.32;;
10900;SDS011;5503;53.208;10.392;2022-08-19T05:16:34;18.38;;;7.80;;
10900;SDS011;5503;53.208;10.392;2022-08-19T05:19:01;16.95;;;7.70;;
10900;SDS011;5503;53.208;10.392;2022-08-19T05:21:47;21.70;;;8.50;;
10900;SDS011;5503;53.208;10.392;2022-08-19T05:24:40;19.77;;;8.63;;
10900;SDS011;5503;53.208;10.392;2022-08-19T05:27:07;22.48;;;9.18;;
10900;SDS011;5503;53.208;10.392;2022-08-19T05:29:34;18.95;;;8.15;;
10900;SDS011;5503;53.208;10.392;2022-08-19T05:32:02;19.95;;;8.98;;
10900;SDS011;5503;53.208;10.392;2022-08-19T05:34:34;23.03;;;8.40;;
10900;SDS011;5503;53.208;10.392;2022-08-19T05:37:05;22.30;;;9.27;;
10900;SDS011;5503;53.208;10.392;2022-08-19T05:39:33;24.08;;;9.88;;
10900;SDS011;5503;53.208;10.392;2022-08-19T05:42:04;25.10;;;9.65;;
10900;SDS011;5503;53.208;10.392;2022-08-19T05:44:33;23.23;;;9.65;;
10900;SDS011;5503;53.208;10.392;2022-08-19T05:47:05;28.10;;;10.03;;
10900;SDS011;5503;53.208;10.392;2022-08-19T05:49:34;23.23;;;8.98;;
10900;SDS011;5503;53.208;10.392;2022-08-19T05:52:03;30.80;;;11.85;;
10900;SDS011;5503;53.208;10.392;2022-08-19T05:54:32;28.17;;;11.25;;
10900;SDS011;5503;53.208;10.392;2022-08-19T05:57:01;26.10;;;10.85;;
10900;SDS011;5503;53.208;10.392;2022-08-19T05:59:28;27.57;;;10.40;;
10900;SDS011;5503;53.208;10.392;2022-08-19T06:01:56;25.23;;;11.00;;
10900;SDS011;5503;53.208;10.392;2022-08-19T06:04:23;31.75;;;11.50;;
10900;SDS011;5503;53.208;10.392;2022-08-19T06:06:51;28.83;;;10.85;;
10900;SDS011;5503;53.208;10.392;2022-08-19T06:09:21;28.00;;;10.35;;
10900;SDS011;5503;53.208;10.392;2022-08-19T06:11:48;25.00;;;10.37;;
10900;SDS011;5503;53.208;10.392;2022-08-19T06:14:19;27.20;;;10.23;;
10900;SDS011;5503;53.208;10.392;2022-08-19T06:16:47;25.38;;;9.75;;
10900;SDS011;5503;53.208;10.392;2022-08-19T06:19:16;26.45;;;10.18;;
10900;SDS011;5503;53.208;10.392;2022-08-19T06:21:45;32.72;;;12.15;;
10900;SDS011;5503;53.208;10.392;2022-08-19T06:24:14;33.87;;;12.73;;
10900;SDS011;5503;53.208;10.392;2022-08-19T06:26:45;37.70;;;14.32;;
10900;SDS011;5503;53.208;10.392;2022-08-19T06:29:14;62.28;;;29.33;;
10900;SDS011;5503;53.208;10.392;2022-08-19T06:31:43;98.38;;;36.72;;
10900;SDS011;5503;53.208;10.392;2022-08-19T06:34:11;35.38;;;13.40;;
10900;SDS011;5503;53.208;10.392;2022-08-19T06:36:39;33.00;;;13.13;;
10900;SDS011;5503;53.208;10.392;2022-08-19T06:39:09;36.30;;;13.25;;
10900;SDS011;5503;53.208;10.392;2022-08-19T06:41:43;32.28;;;13.13;;
10900;SDS011;5503;53.208;10.392;2022-08-19T06:44:12;31.45;;;12.05;;
10900;SDS011;5503;53.208;10.392;2022-08-19T06:46:39;37.35;;;13.95;;
10900;SDS011;5503;53.208;10.392;2022-08-19T06:49:07;29.90;;;12.03;;
10900;SDS011;5503;53.208;10.392;2022-08-19T06:51:38;39.72;;;15.75;;
10900;SDS011;5503;53.208;10.392;2022-08-19T06:54:06;38.45;;;12.98;;
10900;SDS011;5503;53.208;10.392;2022-08-19T06:56:33;32.65;;;12.45;;
10900;SDS011;5503;53.208;10.392;2022-08-19T06:59:02;35.47;;;13.65;;
10900;SDS011;5503;53.208;10.392;2022-08-19T07:01:30;40.50;;;14.30;;
10900;SDS011;5503;53.208;10.392;2022-08-19T07:03:59;35.25;;;14.18;;
10900;SDS011;5503;53.208;10.392;2022-08-19T07:06:27;34.38;;;13.95;;
10900;SDS011;5503;53.208;10.392;2022-08-19T07:08:56;28.35;;;12.48;;
10900;SDS011;5503;53.208;10.392;2022-08-19T07:11:24;29.77;;;12.60;;
10900;SDS011;5503;53.208;10.392;2022-08-19T07:13:51;36.17;;;13.83;;
10900;SDS011;5503;53.208;10.392;2022-08-19T07:16:21;31.52;;;13.90;;
10900;SDS011;5503;53.208;10.392;2022-08-19T07:18:48;30.17;;;12.88;;
10900;SDS011;5503;53.208;10.392;2022-08-19T07:21:16;34.08;;;13.80;;
10900;SDS011;5503;53.208;10.392;2022-08-19T07:23:46;25.40;;;9.63;;
10900;SDS011;5503;53.208;10.392;2022-08-19T07:26:15;29.43;;;13.43;;
10900;SDS011;5503;53.208;10.392;2022-08-19T07:28:47;28.95;;;12.25;;
10900;SDS011;5503;53.208;10.392;2022-08-19T07:31:16;26.55;;;12.45;;
10900;SDS011;5503;53.208;10.392;2022-08-19T07:33:46;34.75;;;12.85;;
10900;SDS011;5503;53.208;10.392;2022-08-19T07:36:14;33.10;;;13.55;;
10900;SDS011;5503;53.208;10.392;2022-08-19T07:38:44;33.40;;;13.90;;
10900;SDS011;5503;53.208;10.392;2022-08-19T07:41:15;38.97;;;15.50;;
10900;SDS011;5503;53.208;10.392;2022-08-19T07:43:43;35.20;;;14.65;;
10900;SDS011;5503;53.208;10.392;2022-08-19T07:46:11;37.03;;;14.65;;
10900;SDS011;5503;53.208;10.392;2022-08-19T07:48:40;35.10;;;14.85;;
10900;SDS011;5503;53.208;10.392;2022-08-19T07:51:10;41.93;;;15.60;;
10900;SDS011;5503;53.208;10.392;2022-08-19T07:53:39;37.08;;;15.27;;
10900;SDS011;5503;53.208;10.392;2022-08-19T07:56:08;34.50;;;14.88;;
10900;SDS011;5503;53.208;10.392;2022-08-19T07:58:38;40.05;;;17.30;;
10900;SDS011;5503;53.208;10.392;2022-08-19T08:01:07;40.65;;;15.38;;
10900;SDS011;5503;53.208;10.392;2022-08-19T08:03:36;47.30;;;16.50;;
10900;SDS011;5503;53.208;10.392;2022-08-19T08:06:22;50.47;;;17.50;;
10900;SDS011;5503;53.208;10.392;2022-08-19T08:09:08;47.63;;;16.10;;
10900;SDS011;5503;53.208;10.392;2022-08-19T08:11:44;41.58;;;15.75;;
10900;SDS011;5503;53.208;10.392;2022-08-19T08:14:14;45.60;;;18.63;;
10900;SDS011;5503;53.208;10.392;2022-08-19T08:16:43;45.53;;;17.13;;
10900;SDS011;5503;53.208;10.392;2022-08-19T08:19:10;48.15;;;16.92;;
10900;SDS011;5503;53.208;10.392;2022-08-19T08:21:41;48.20;;;17.60;;
10900;SDS011;5503;53.208;10.392;2022-08-19T08:24:09;48.97;;;17.17;;
10900;SDS011;5503;53.208;10.392;2022-08-19T08:26:36;44.67;;;16.25;;
10900;SDS011;5503;53.208;10.392;2022-08-19T08:29:03;47.13;;;17.37;;
10900;SDS011;5503;53.208;10.392;2022-08-19T08:31:33;48.97;;;17.75;;
10900;SDS011;5503;53.208;10.392;2022-08-19T08:34:00;55.20;;;18.90;;
10900;SDS011;5503;53.208;10.392;2022-08-19T08:36:27;48.88;;;16.33;;
10900;SDS011;5503;53.208;10.392;2022-08-19T08:38:59;49.83;;;17.35;;
10900;SDS011;5503;53.208;10.392;2022-08-19T08:41:28;53.10;;;19.27;;
10900;SDS011;5503;53.208;10.392;2022-08-19T08:44:00;47.33;;;17.63;;
10900;SDS011;5503;53.208;10.392;2022-08-19T08:46:32;42.40;;;16.55;;
10900;SDS011;5503;53.208;10.392;2022-08-19T08:49:04;45.42;;;16.90;;
10900;SDS011;5503;53.208;10.392;2022-08-19T08:51:38;44.60;;;16.25;;
10900;SDS011;5503;53.208;10.392;2022-08-19T08:54:10;44.73;;;16.37;;
10900;SDS011;5503;53.208;10.392;2022-08-19T08:56:39;43.13;;;16.67;;
10900;SDS011;5503;53.208;10.392;2022-08-19T08:59:10;40.17;;;14.70;;
10900;SDS011;5503;53.208;10.392;2022-08-19T09:01:46;42.30;;;16.02;;
10900;SDS011;5503;53.208;10.392;2022-08-19T09:04:14;43.03;;;15.00;;
10900;SDS011;5503;53.208;10.392;2022-08-19T09:06:44;41.47;;;15.80;;
10900;SDS011;5503;53.208;10.392;2022-08-19T09:09:20;41.97;;;14.30;;
10900;SDS011;5503;53.208;10.392;2022-08-19T09:11:56;43.08;;;15.50;;
10900;SDS011;5503;53.208;10.392;2022-08-19T09:14:32;45.20;;;15.80;;
10900;SDS011;5503;53.208;10.392;2022-08-19T09:17:06;43.97;;;16.17;;
10900;SDS011;5503;53.208;10.392;2022-08-19T09:19:34;41.97;;;14.77;;
10900;SDS011;5503;53.208;10.392;2022-08-19T09:22:02;46.38;;;16.38;;
10900;SDS011;5503;53.208;10.392;2022-08-19T09:24:31;46.15;;;15.07;;
10900;SDS011;5503;53.208;10.392;2022-08-19T09:26:58;43.10;;;14.93;;
10900;SDS011;5503;53.208;10.392;2022-08-19T09:29:26;40.15;;;14.55;;
10900;SDS011;5503;53.208;10.392;2022-08-19T09:31:54;39.27;;;14.90;;
10900;SDS011;5503;53.208;10.392;2022-08-19T09:34:22;38.45;;;13.77;;
10900;SDS011;5503;53.208;10.392;2022-08-19T09:36:50;41.92;;;16.02;;
10900;SDS011;5503;53.208;10.392;2022-08-19T09:39:20;40.03;;;15.13;;
10900;SDS011;5503;53.208;10.392;2022-08-19T09:41:48;36.05;;;14.15;;
10900;SDS011;5503;53.208;10.392;2022-08-19T09:44:15;39.70;;;15.13;;
10900;SDS011;5503;53.208;10.392;2022-08-19T09:46:43;38.70;;;14.70;;
10900;SDS011;5503;53.208;10.392;2022-08-19T09:49:11;34.10;;;12.40;;
10900;SDS011;5503;53.208;10.392;2022-08-19T09:51:39;37.28;;;13.30;;
10900;SDS011;5503;53.208;10.392;2022-08-19T09:54:06;40.13;;;15.10;;
10900;SDS011;5503;53.208;10.392;2022-08-19T09:56:33;38.27;;;13.80;;
10900;SDS011;5503;53.208;10.392;2022-08-19T09:59:02;40.10;;;16.05;;
10900;SDS011;5503;53.208;10.392;2022-08-19T10:01:31;39.28;;;14.98;;
10900;SDS011;5503;53.208;10.392;2022-08-19T10:03:58;39.83;;;14.82;;
10900;SDS011;5503;53.208;10.392;2022-08-19T10:06:27;40.10;;;14.40;;
10900;SDS011;5503;53.208;10.392;2022-08-19T10:08:58;42.10;;;15.07;;
10900;SDS011;5503;53.208;10.392;2022-08-19T10:11:25;39.65;;;14.77;;
10900;SDS011;5503;53.208;10.392;2022-08-19T10:13:54;38.33;;;14.15;;
10900;SDS011;5503;53.208;10.392;2022-08-19T10:16:23;42.63;;;13.38;;
10900;SDS011;5503;53.208;10.392;2022-08-19T10:18:50;40.13;;;15.52;;
10900;SDS011;5503;53.208;10.392;2022-08-19T10:21:20;35.03;;;13.63;;
10900;SDS011;5503;53.208;10.392;2022-08-19T10:23:50;33.15;;;13.35;;
10900;SDS011;5503;53.208;10.392;2022-08-19T10:26:19;32.28;;;13.02;;
10900;SDS011;5503;53.208;10.392;2022-08-19T10:28:47;37.10;;;15.02;;
10900;SDS011;5503;53.208;10.392;2022-08-19T10:31:17;38.65;;;14.32;;
10900;SDS011;5503;53.208;10.392;2022-08-19T10:33:47;32.73;;;13.00;;
10900;SDS011;5503;53.208;10.392;2022-08-19T10:36:16;36.25;;;14.02;;
10900;SDS011;5503;53.208;10.392;2022-08-19T10:38:46;29.13;;;13.63;;
10900;SDS011;5503;53.208;10.392;2022-08-19T10:41:16;37.45;;;14.80;;
10900;SDS011;5503;53.208;10.392;2022-08-19T10:43:44;34.17;;;13.68;;
10900;SDS011;5503;53.208;10.392;2022-08-19T10:46:13;32.53;;;13.70;;
10900;SDS011;5503;53.208;10.392;2022-08-19T10:48:41;36.78;;;14.00;;
10900;SDS011;5503;53.208;10.392;2022-08-19T10:51:10;35.50;;;12.73;;
10900;SDS011;5503;53.208;10.392;2022-08-19T10:53:55;37.80;;;15.07;;
10900;SDS011;5503;53.208;10.392;2022-08-19T10:56:23;44.63;;;15.05;;
10900;SDS011;5503;53.208;10.392;2022-08-19T10:59:08;40.47;;;15.10;;
10900;SDS011;5503;53.208;10.392;2022-08-19T11:01:38;36.63;;;13.20;;
10900;SDS011;5503;53.208;10.392;2022-08-19T11:04:06;35.17;;;15.48;;
10900;SDS011;5503;53.208;10.392;2022-08-19T11:06:37;36.78;;;13.90;;
10900;SDS011;5503;53.208;10.392;2022-08-19T11:09:06;34.33;;;13.13;;
10900;SDS011;5503;53.208;10.392;2022-08-19T11:11:34;36.57;;;14.63;;
10900;SDS011;5503;53.208;10.392;2022-08-19T11:14:05;36.00;;;14.25;;
10900;SDS011;5503;53.208;10.392;2022-08-19T11:16:32;38.85;;;13.55;;
10900;SDS011;5503;53.208;10.392;2022-08-19T11:18:59;41.78;;;14.23;;
10900;SDS011;5503;53.208;10.392;2022-08-19T11:21:28;41.65;;;16.13;;
10900;SDS011;5503;53.208;10.392;2022-08-19T11:23:58;35.93;;;14.50;;
10900;SDS011;5503;53.208;10.392;2022-08-19T11:26:28;34.47;;;12.73;;
10900;SDS011;5503;53.208;10.392;2022-08-19T11:28:56;34.95;;;13.80;;
10900;SDS011;5503;53.208;10.392;2022-08-19T11:31:24;38.78;;;14.93;;
10900;SDS011;5503;53.208;10.392;2022-08-19T11:33:52;36.88;;;14.00;;
10900;SDS011;5503;53.208;10.392;2022-08-19T11:36:20;39.37;;;14.70;;
10900;SDS011;5503;53.208;10.392;2022-08-19T11:38:47;32.75;;;13.80;;
10900;SDS011;5503;53.208;10.392;2022-08-19T11:41:16;32.90;;;13.50;;
10900;SDS011;5503;53.208;10.392;2022-08-19T11:43:44;38.08;;;13.77;;
10900;SDS011;5503;53.208;10.392;2022-08-19T11:46:12;28.92;;;13.77;;
10900;SDS011;5503;53.208;10.392;2022-08-19T11:48:40;32.90;;;14.10;;
10900;SDS011;5503;53.208;10.392;2022-08-19T11:51:09;30.90;;;13.93;;
10900;SDS011;5503;53.208;10.392;2022-08-19T11:53:38;40.05;;;16.05;;
10900;SDS011;5503;53.208;10.392;2022-08-19T11:56:07;34.17;;;13.75;;
10900;SDS011;5503;53.208;10.392;2022-08-19T11:58:36;36.65;;;16.90;;
10900;SDS011;5503;53.208;10.392;2022-08-19T12:01:05;46.30;;;18.47;;
10900;SDS011;5503;53.208;10.392;2022-08-19T12:03:32;40.83;;;16.88;;
10900;SDS011;5503;53.208;10.392;2022-08-19T12:06:02;44.65;;;17.77;;
10900;SDS011;5503;53.208;10.392;2022-08-19T12:08:30;47.30;;;18.45;;
10900;SDS011;5503;53.208;10.392;2022-08-19T12:10:58;47.80;;;18.95;;
10900;SDS011;5503;53.208;10.392;2022-08-19T12:13:26;44.87;;;18.63;;
10900;SDS011;5503;53.208;10.392;2022-08-19T12:15:55;44.85;;;17.17;;
10900;SDS011;5503;53.208;10.392;2022-08-19T12:18:23;44.33;;;14.55;;
10900;SDS011;5503;53.208;10.392;2022-08-19T12:20:51;36.05;;;15.25;;
10900;SDS011;5503;53.208;10.392;2022-08-19T12:23:19;40.85;;;17.40;;
10900;SDS011;5503;53.208;10.392;2022-08-19T12:25:47;43.83;;;17.63;;
10900;SDS011;5503;53.208;10.392;2022-08-19T12:28:16;37.83;;;15.00;;
10900;SDS011;5503;53.208;10.392;2022-08-19T12:30:44;43.80;;;18.25;;
10900;SDS011;5503;53.208;10.392;2022-08-19T12:33:13;45.22;;;18.45;;
10900;SDS011;5503;53.208;10.392;2022-08-19T12:35:40;37.47;;;16.27;;
10900;SDS011;5503;53.208;10.392;2022-08-19T12:38:09;42.97;;;18.10;;
10900;SDS011;5503;53.208;10.392;2022-08-19T12:40:36;34.30;;;16.30;;
10900;SDS011;5503;53.208;10.392;2022-08-19T12:43:05;37.20;;;15.68;;
10900;SDS011;5503;53.208;10.392;2022-08-19T12:45:33;32.90;;;15.65;;
10900;SDS011;5503;53.208;10.392;2022-08-19T12:48:01;37.92;;;18.10;;
10900;SDS011;5503;53.208;10.392;2022-08-19T12:50:29;39.53;;;18.63;;
10900;SDS011;5503;53.208;10.392;2022-08-19T12:52:56;35.72;;;16.45;;
10900;SDS011;5503;53.208;10.392;2022-08-19T12:55:24;38.25;;;18.13;;
10900;SDS011;5503;53.208;10.392;2022-08-19T12:57:53;38.45;;;17.90;;
10900;SDS011;5503;53.208;10.392;2022-08-19T13:00:21;36.95;;;18.25;;
10900;SDS011;5503;53.208;10.392;2022-08-19T13:02:49;35.60;;;16.73;;
10900;SDS011;5503;53.208;10.392;2022-08-19T13:05:18;39.20;;;16.52;;
10900;SDS011;5503;53.208;10.392;2022-08-19T13:07:49;36.33;;;16.15;;
10900;SDS011;5503;53.208;10.392;2022-08-19T13:10:18;36.63;;;17.70;;
10900;SDS011;5503;53.208;10.392;2022-08-19T13:12:47;36.13;;;16.52;;
10900;SDS011;5503;53.208;10.392;2022-08-19T13:15:16;42.63;;;19.17;;
10900;SDS011;5503;53.208;10.392;2022-08-19T13:17:45;41.25;;;20.33;;
10900;SDS011;5503;53.208;10.392;2022-08-19T13:20:13;44.55;;;20.52;;
10900;SDS011;5503;53.208;10.392;2022-08-19T13:22:40;40.65;;;19.50;;
10900;SDS011;5503;53.208;10.392;2022-08-19T13:25:11;42.88;;;21.17;;
10900;SDS011;5503;53.208;10.392;2022-08-19T13:27:39;40.10;;;18.23;;
10900;SDS011;5503;53.208;10.392;2022-08-19T13:30:07;37.97;;;17.98;;
10900;SDS011;5503;53.208;10.392;2022-08-19T13:32:53;42.50;;;19.98;;
10900;SDS011;5503;53.208;10.392;2022-08-19T13:35:39;40.10;;;18.52;;
10900;SDS011;5503;53.208;10.392;2022-08-19T13:38:07;38.97;;;18.52;;
10900;SDS011;5503;53.208;10.392;2022-08-19T13:40:37;41.90;;;19.77;;
10900;SDS011;5503;53.208;10.392;2022-08-19T13:43:04;38.22;;;18.65;;
10900;SDS011;5503;53.208;10.392;2022-08-19T13:45:33;36.47;;;17.27;;
10900;SDS011;5503;53.208;10.392;2022-08-19T13:48:00;40.65;;;20.13;;
10900;SDS011;5503;53.208;10.392;2022-08-19T13:50:32;35.75;;;18.13;;
10900;SDS011;5503;53.208;10.392;2022-08-19T13:52:59;41.50;;;18.13;;
10900;SDS011;5503;53.208;10.392;2022-08-19T13:55:27;36.28;;;18.35;;
10900;SDS011;5503;53.208;10.392;2022-08-19T13:57:56;31.77;;;15.48;;
10900;SDS011;5503;53.208;10.392;2022-08-19T14:00:25;37.35;;;16.92;;
10900;SDS011;5503;53.208;10.392;2022-08-19T14:02:55;38.70;;;19.35;;
10900;SDS011;5503;53.208;10.392;2022-08-19T14:05:22;33.63;;;16.20;;
10900;SDS011;5503;53.208;10.392;2022-08-19T14:07:51;32.85;;;15.98;;
10900;SDS011;5503;53.208;10.392;2022-08-19T14:10:18;35.40;;;17.38;;
10900;SDS011;5503;53.208;10.392;2022-08-19T14:12:46;38.30;;;18.45;;
10900;SDS011;5503;53.208;10.392;2022-08-19T14:15:15;35.08;;;17.88;;
10900;SDS011;5503;53.208;10.392;2022-08-19T14:17:42;37.03;;;17.30;;
10900;SDS011;5503;53.208;10.392;2022-08-19T14:20:12;38.58;;;18.55;;
10900;SDS011;5503;53.208;10.392;2022-08-19T14:22:40;39.97;;;19.42;;
10900;SDS011;5503;53.208;10.392;2022-08-19T14:25:09;43.05;;;20.08;;
10900;SDS011;5503;53.208;10.392;2022-08-19T14:27:41;48.13;;;23.25;;
10900;SDS011;5503;53.208;10.392;2022-08-19T14:30:11;32.57;;;17.80;;
10900;SDS011;5503;53.208;10.392;2022-08-19T14:32:45;28.92;;;14.38;;
10900;SDS011;5503;53.208;10.392;2022-08-19T14:35:12;30.02;;;15.65;;
10900;SDS011;5503;53.208;10.392;2022-08-19T14:37:41;27.02;;;15.15;;
10900;SDS011;5503;53.208;10.392;2022-08-19T14:40:09;27.23;;;15.02;;